sensor_id;sensor_type;location;lat;lon;timestamp;pressure;altitude;pressure_sealevel;temperature;humidity
1652;BME280;823;49.028;8.454;2023-03-20T00:04:42;100718.66;;;13.45;58.96
1652;BME280;823;49.028;8.454;2023-03-20T00:09:43;100711.84;;;13.43;59.11
1652;BME280;823;49.028;8.454;2023-03-20T00:14:43;100724.72;;;13.46;58.70
1652;BME280;823;49.028;8.454;2023-03-20T00:19:43;100735.28;;;13.41;58.77
1652;BME280;823;49.028;8.454;2023-03-20T00:24:44;100726.59;;;13.42;58.85
1652;BME280;823;49.028;8.454;2023-03-20T00:29:45;100715.28;;;13.43;58.95
1652;BME280;823;49.028;8.454;2023-03-20T00:34:45;100726.34;;;13.25;59.21
1652;BME280;823;49.028;8.454;2023-03-20T00:39:45;100727.47;;;13.41;58.89
1652;BME280;823;49.028;8.454;2023-03-20T00:44:53;100719.63;;;13.43;59.16
1652;BME280;823;49.028;8.454;2023-03-20T00:49:54;100729.44;;;13.36;59.21
1652;BME280;823;49.028;8.454;2023-03-20T00:54:55;100733.41;;;13.45;58.97
1652;BME280;823;49.028;8.454;2023-03-20T01:00:02;100727.88;;;13.54;58.69
1652;BME280;823;49.028;8.454;2023-03-20T01:05:04;100726.22;;;13.52;58.82
1652;BME280;823;49.028;8.454;2023-03-20T01:10:05;100730.28;;;13.59;58.73
1652;BME280;823;49.028;8.454;2023-03-20T01:15:27;100726.94;;;13.55;58.56
1652;BME280;823;49.028;8.454;2023-03-20T01:20:30;100731.97;;;13.60;58.56
1652;BME280;823;49.028;8.454;2023-03-20T01:25:30;100738.19;;;13.56;58.36
1652;BME280;823;49.028;8.454;2023-03-20T01:30:31;100730.53;;;13.53;58.25
1652;BME280;823;49.028;8.454;2023-03-20T01:35:31;100738.19;;;13.56;58.16
1652;BME280;823;49.028;8.454;2023-03-20T01:40:39;100743.25;;;13.59;58.07
1652;BME280;823;49.028;8.454;2023-03-20T01:50:55;100747.69;;;13.57;58.05
1652;BME280;823;49.028;8.454;2023-03-20T01:55:58;100754.00;;;13.50;58.34
1652;BME280;823;49.028;8.454;2023-03-20T02:00:59;100752.56;;;13.42;58.65
1652;BME280;823;49.028;8.454;2023-03-20T02:05:59;100754.06;;;13.48;58.25
1652;BME280;823;49.028;8.454;2023-03-20T02:11:01;100756.88;;;13.66;58.07
1652;BME280;823;49.028;8.454;2023-03-20T02:16:04;100764.00;;;13.60;58.31
1652;BME280;823;49.028;8.454;2023-03-20T02:26:25;100756.38;;;13.56;58.23
1652;BME280;823;49.028;8.454;2023-03-20T02:31:51;100761.81;;;13.50;58.36
1652;BME280;823;49.028;8.454;2023-03-20T02:37:12;100755.09;;;13.44;58.64
1652;BME280;823;49.028;8.454;2023-03-20T02:53:06;100763.22;;;13.58;58.38
1652;BME280;823;49.028;8.454;2023-03-20T02:58:21;100761.31;;;13.40;58.80
1652;BME280;823;49.028;8.454;2023-03-20T03:03:36;100768.41;;;13.36;58.92
1652;BME280;823;49.028;8.454;2023-03-20T03:08:42;100773.28;;;13.44;58.88
1652;BME280;823;49.028;8.454;2023-03-20T03:13:48;100772.91;;;13.31;59.50
1652;BME280;823;49.028;8.454;2023-03-20T03:18:58;100768.66;;;13.52;58.69
1652;BME280;823;49.028;8.454;2023-03-20T03:23:59;100777.66;;;13.43;58.51
1652;BME280;823;49.028;8.454;2023-03-20T03:29:01;100774.81;;;13.26;59.75
1652;BME280;823;49.028;8.454;2023-03-20T03:34:03;100789.19;;;13.36;59.26
1652;BME280;823;49.028;8.454;2023-03-20T03:49:35;100770.47;;;13.50;58.97
1652;BME280;823;49.028;8.454;2023-03-20T03:54:42;100771.66;;;13.41;59.06
1652;BME280;823;49.028;8.454;2023-03-20T03:59:46;100757.81;;;13.41;58.89
1652;BME280;823;49.028;8.454;2023-03-20T04:04:51;100768.66;;;13.28;59.27
1652;BME280;823;49.028;8.454;2023-03-20T04:09:52;100770.88;;;13.16;59.11
1652;BME280;823;49.028;8.454;2023-03-20T04:14:52;100775.19;;;13.17;59.60
1652;BME280;823;49.028;8.454;2023-03-20T04:19:53;100784.31;;;13.03;60.15
1652;BME280;823;49.028;8.454;2023-03-20T04:24:53;100787.81;;;13.02;60.10
1652;BME280;823;49.028;8.454;2023-03-20T04:29:53;100800.59;;;13.08;59.89
1652;BME280;823;49.028;8.454;2023-03-20T04:34:54;100803.19;;;13.08;59.62
1652;BME280;823;49.028;8.454;2023-03-20T04:39:54;100805.66;;;13.11;59.72
1652;BME280;823;49.028;8.454;2023-03-20T04:44:55;100803.19;;;13.08;59.75
1652;BME280;823;49.028;8.454;2023-03-20T04:49:55;100800.97;;;12.98;60.17
1652;BME280;823;49.028;8.454;2023-03-20T04:54:55;100793.91;;;13.01;59.94
1652;BME280;823;49.028;8.454;2023-03-20T04:59:56;100794.78;;;13.02;60.00
1652;BME280;823;49.028;8.454;2023-03-20T05:04:56;100794.91;;;12.97;60.01
1652;BME280;823;49.028;8.454;2023-03-20T05:09:56;100792.56;;;12.91;60.20
1652;BME280;823;49.028;8.454;2023-03-20T05:14:56;100798.75;;;12.87;59.99
1652;BME280;823;49.028;8.454;2023-03-20T05:19:57;100800.47;;;12.88;60.15
1652;BME280;823;49.028;8.454;2023-03-20T05:24:57;100801.63;;;12.79;60.57
1652;BME280;823;49.028;8.454;2023-03-20T05:29:57;100801.47;;;12.84;60.41
1652;BME280;823;49.028;8.454;2023-03-20T05:34:58;100812.88;;;12.80;60.27
1652;BME280;823;49.028;8.454;2023-03-20T05:39:58;100817.94;;;12.83;60.15
1652;BME280;823;49.028;8.454;2023-03-20T05:44:58;100822.13;;;12.87;60.08
1652;BME280;823;49.028;8.454;2023-03-20T05:49:58;100823.59;;;12.94;59.74
1652;BME280;823;49.028;8.454;2023-03-20T05:54:59;100831.50;;;12.91;59.73
1652;BME280;823;49.028;8.454;2023-03-20T05:59:59;100831.84;;;13.05;59.46
1652;BME280;823;49.028;8.454;2023-03-20T06:05:00;100818.03;;;13.05;59.35
1652;BME280;823;49.028;8.454;2023-03-20T06:10:00;100820.16;;;12.93;59.40
1652;BME280;823;49.028;8.454;2023-03-20T06:15:01;100823.59;;;13.18;58.81
1652;BME280;823;49.028;8.454;2023-03-20T06:20:01;100826.47;;;13.35;58.15
1652;BME280;823;49.028;8.454;2023-03-20T06:25:02;100824.53;;;13.40;57.79
1652;BME280;823;49.028;8.454;2023-03-20T06:30:03;100839.00;;;13.70;57.38
1652;BME280;823;49.028;8.454;2023-03-20T06:35:04;100860.22;;;13.59;57.35
1652;BME280;823;49.028;8.454;2023-03-20T06:40:06;100866.56;;;13.52;57.47
1652;BME280;823;49.028;8.454;2023-03-20T06:45:06;100861.50;;;13.47;57.81
1652;BME280;823;49.028;8.454;2023-03-20T06:50:08;100875.59;;;13.41;57.72
1652;BME280;823;49.028;8.454;2023-03-20T06:55:09;100879.47;;;13.29;58.25
1652;BME280;823;49.028;8.454;2023-03-20T07:00:10;100881.66;;;13.17;58.61
1652;BME280;823;49.028;8.454;2023-03-20T07:05:10;100889.84;;;13.29;58.08
1652;BME280;823;49.028;8.454;2023-03-20T07:10:11;100879.47;;;13.29;58.48
1652;BME280;823;49.028;8.454;2023-03-20T07:15:11;100887.53;;;13.22;58.57
1652;BME280;823;49.028;8.454;2023-03-20T07:20:12;100892.84;;;13.19;58.92
1652;BME280;823;49.028;8.454;2023-03-20T07:25:13;100892.44;;;13.29;58.49
1652;BME280;823;49.028;8.454;2023-03-20T07:30:14;100882.91;;;13.30;58.14
1652;BME280;823;49.028;8.454;2023-03-20T07:35:15;100880.88;;;13.62;57.67
1652;BME280;823;49.028;8.454;2023-03-20T07:40:15;100875.00;;;13.81;56.71
1652;BME280;823;49.028;8.454;2023-03-20T07:45:16;100879.25;;;13.83;56.51
1652;BME280;823;49.028;8.454;2023-03-20T07:50:17;100878.06;;;13.68;56.75
1652;BME280;823;49.028;8.454;2023-03-20T07:55:17;100874.53;;;13.93;56.11
1652;BME280;823;49.028;8.454;2023-03-20T08:00:19;100870.38;;;14.09;55.57
1652;BME280;823;49.028;8.454;2023-03-20T08:05:19;100871.59;;;14.23;55.33
1652;BME280;823;49.028;8.454;2023-03-20T08:10:20;100869.81;;;14.45;54.67
1652;BME280;823;49.028;8.454;2023-03-20T08:15:20;100879.06;;;14.53;54.11
1652;BME280;823;49.028;8.454;2023-03-20T08:20:21;100885.81;;;14.57;54.09
1652;BME280;823;49.028;8.454;2023-03-20T08:25:21;100892.97;;;14.52;53.23
1652;BME280;823;49.028;8.454;2023-03-20T08:30:22;100897.56;;;14.67;52.75
1652;BME280;823;49.028;8.454;2023-03-20T08:35:22;100896.81;;;14.86;53.03
1652;BME280;823;49.028;8.454;2023-03-20T08:40:22;100898.91;;;14.55;53.01
1652;BME280;823;49.028;8.454;2023-03-20T08:45:23;100905.25;;;14.70;52.55
1652;BME280;823;49.028;8.454;2023-03-20T08:50:25;100911.78;;;14.80;51.73
1652;BME280;823;49.028;8.454;2023-03-20T08:55:27;100918.72;;;14.80;51.63
1652;BME280;823;49.028;8.454;2023-03-20T09:00:27;100924.97;;;14.76;51.42
1652;BME280;823;49.028;8.454;2023-03-20T09:05:27;100915.41;;;14.97;51.59
1652;BME280;823;49.028;8.454;2023-03-20T09:10:28;100921.00;;;14.88;51.15
1652;BME280;823;49.028;8.454;2023-03-20T09:15:28;100920.16;;;14.67;51.67
1652;BME280;823;49.028;8.454;2023-03-20T09:20:28;100927.25;;;14.84;51.19
1652;BME280;823;49.028;8.454;2023-03-20T09:25:29;100935.81;;;14.87;50.73
1652;BME280;823;49.028;8.454;2023-03-20T09:30:29;100944.97;;;15.17;50.43
1652;BME280;823;49.028;8.454;2023-03-20T09:35:29;100948.09;;;15.25;50.15
1652;BME280;823;49.028;8.454;2023-03-20T09:51:32;100968.34;;;14.97;49.67
1652;BME280;823;49.028;8.454;2023-03-20T09:56:35;100971.47;;;15.06;49.93
1652;BME280;823;49.028;8.454;2023-03-20T10:01:56;100957.94;;;15.18;49.45
1652;BME280;823;49.028;8.454;2023-03-20T10:07:02;100951.66;;;15.22;49.63
1652;BME280;823;49.028;8.454;2023-03-20T10:27:39;100933.44;;;16.37;45.89
1652;BME280;823;49.028;8.454;2023-03-20T10:38:41;100929.91;;;16.55;45.30
1652;BME280;823;49.028;8.454;2023-03-20T10:43:46;100927.78;;;16.98;44.60
1652;BME280;823;49.028;8.454;2023-03-20T10:53:54;100928.47;;;16.84;42.47
1652;BME280;823;49.028;8.454;2023-03-20T10:58:58;100926.16;;;16.96;42.24
1652;BME280;823;49.028;8.454;2023-03-20T11:04:00;100911.81;;;17.05;42.29
1652;BME280;823;49.028;8.454;2023-03-20T11:09:11;100911.09;;;17.01;42.34
1652;BME280;823;49.028;8.454;2023-03-20T11:14:22;100906.31;;;17.09;42.52
1652;BME280;823;49.028;8.454;2023-03-20T11:19:23;100912.97;;;16.99;42.02
1652;BME280;823;49.028;8.454;2023-03-20T11:24:36;100912.31;;;16.76;41.89
1652;BME280;823;49.028;8.454;2023-03-20T11:29:39;100905.09;;;16.81;42.80
1652;BME280;823;49.028;8.454;2023-03-20T11:34:40;100897.59;;;16.93;41.00
1652;BME280;823;49.028;8.454;2023-03-20T11:45:17;100892.53;;;16.90;41.53
1652;BME280;823;49.028;8.454;2023-03-20T11:50:33;100886.91;;;17.31;40.98
1652;BME280;823;49.028;8.454;2023-03-20T11:55:34;100893.38;;;17.24;40.29
1652;BME280;823;49.028;8.454;2023-03-20T12:00:38;100894.97;;;17.26;40.70
1652;BME280;823;49.028;8.454;2023-03-20T12:05:38;100894.66;;;17.32;41.10
1652;BME280;823;49.028;8.454;2023-03-20T12:10:42;100895.66;;;17.30;40.49
1652;BME280;823;49.028;8.454;2023-03-20T12:15:53;100877.97;;;17.35;40.81
1652;BME280;823;49.028;8.454;2023-03-20T12:21:15;100868.59;;;17.31;40.93
1652;BME280;823;49.028;8.454;2023-03-20T12:31:32;100852.75;;;17.50;39.78
1652;BME280;823;49.028;8.454;2023-03-20T12:36:37;100844.81;;;17.67;39.72
1652;BME280;823;49.028;8.454;2023-03-20T12:41:59;100843.41;;;17.62;39.24
1652;BME280;823;49.028;8.454;2023-03-20T12:47:29;100836.56;;;17.75;39.28
1652;BME280;823;49.028;8.454;2023-03-20T12:53:03;100830.03;;;17.82;38.67
1652;BME280;823;49.028;8.454;2023-03-20T12:58:28;100821.31;;;18.14;37.66
1652;BME280;823;49.028;8.454;2023-03-20T13:03:53;100825.03;;;18.40;36.88
1652;BME280;823;49.028;8.454;2023-03-20T13:14:23;100813.47;;;18.14;37.27
1652;BME280;823;49.028;8.454;2023-03-20T13:24:49;100808.63;;;17.92;37.68
1652;BME280;823;49.028;8.454;2023-03-20T13:29:59;100803.16;;;17.64;37.86
1652;BME280;823;49.028;8.454;2023-03-20T13:35:16;100809.53;;;17.75;37.45
1652;BME280;823;49.028;8.454;2023-03-20T13:45:30;100801.69;;;17.91;37.14
1652;BME280;823;49.028;8.454;2023-03-20T13:50:40;100788.00;;;18.32;36.44
1652;BME280;823;49.028;8.454;2023-03-20T13:55:53;100784.25;;;18.36;36.43
1652;BME280;823;49.028;8.454;2023-03-20T14:01:10;100777.13;;;18.38;36.32
1652;BME280;823;49.028;8.454;2023-03-20T14:06:43;100777.56;;;18.30;35.83
1652;BME280;823;49.028;8.454;2023-03-20T14:11:44;100767.47;;;18.10;35.95
1652;BME280;823;49.028;8.454;2023-03-20T14:16:45;100767.28;;;18.13;35.79
1652;BME280;823;49.028;8.454;2023-03-20T14:21:55;100757.63;;;18.13;35.51
1652;BME280;823;49.028;8.454;2023-03-20T14:26:58;100752.06;;;17.73;37.21
1652;BME280;823;49.028;8.454;2023-03-20T14:42:51;100764.69;;;17.97;36.09
1652;BME280;823;49.028;8.454;2023-03-20T14:53:23;100772.75;;;17.78;37.03
1652;BME280;823;49.028;8.454;2023-03-20T15:03:41;100758.97;;;17.44;37.54
1652;BME280;823;49.028;8.454;2023-03-20T15:08:46;100754.81;;;17.56;37.73
1652;BME280;823;49.028;8.454;2023-03-20T15:13:49;100750.06;;;17.62;37.11
1652;BME280;823;49.028;8.454;2023-03-20T15:18:52;100754.88;;;17.54;36.81
1652;BME280;823;49.028;8.454;2023-03-20T15:23:52;100757.00;;;17.63;36.92
1652;BME280;823;49.028;8.454;2023-03-20T15:29:04;100769.28;;;17.77;37.25
1652;BME280;823;49.028;8.454;2023-03-20T15:34:08;100766.84;;;17.74;36.49
1652;BME280;823;49.028;8.454;2023-03-20T15:39:12;100765.16;;;17.73;35.90
1652;BME280;823;49.028;8.454;2023-03-20T15:49:18;100772.25;;;17.71;36.33
1652;BME280;823;49.028;8.454;2023-03-20T15:54:19;100758.88;;;17.61;37.01
1652;BME280;823;49.028;8.454;2023-03-20T15:59:24;100757.44;;;17.40;36.96
1652;BME280;823;49.028;8.454;2023-03-20T16:04:25;100760.16;;;17.06;37.10
1652;BME280;823;49.028;8.454;2023-03-20T16:09:27;100745.97;;;17.26;36.84
1652;BME280;823;49.028;8.454;2023-03-20T16:14:30;100731.97;;;17.43;37.53
1652;BME280;823;49.028;8.454;2023-03-20T16:19:32;100734.00;;;17.22;37.69
1652;BME280;823;49.028;8.454;2023-03-20T16:24:38;100728.13;;;17.18;37.45
1652;BME280;823;49.028;8.454;2023-03-20T16:29:41;100731.50;;;17.05;38.08
1652;BME280;823;49.028;8.454;2023-03-20T16:34:47;100728.53;;;16.95;38.34
1652;BME280;823;49.028;8.454;2023-03-20T16:40:09;100734.53;;;16.79;38.06
1652;BME280;823;49.028;8.454;2023-03-20T16:45:24;100733.88;;;16.76;38.51
1652;BME280;823;49.028;8.454;2023-03-20T16:50:33;100737.53;;;16.56;39.02
1652;BME280;823;49.028;8.454;2023-03-20T16:55:36;100741.75;;;16.58;38.88
1652;BME280;823;49.028;8.454;2023-03-20T17:00:49;100744.56;;;16.38;39.04
1652;BME280;823;49.028;8.454;2023-03-20T17:06:03;100728.78;;;16.23;39.66
1652;BME280;823;49.028;8.454;2023-03-20T17:11:11;100737.75;;;16.17;40.05
1652;BME280;823;49.028;8.454;2023-03-20T17:16:17;100745.88;;;16.29;40.02
1652;BME280;823;49.028;8.454;2023-03-20T17:21:18;100745.09;;;16.27;40.15
1652;BME280;823;49.028;8.454;2023-03-20T17:26:18;100749.81;;;16.03;40.03
1652;BME280;823;49.028;8.454;2023-03-20T17:31:19;100755.72;;;16.06;40.48
1652;BME280;823;49.028;8.454;2023-03-20T17:36:30;100757.41;;;16.07;40.19
1652;BME280;823;49.028;8.454;2023-03-20T17:41:31;100762.84;;;16.03;40.49
1652;BME280;823;49.028;8.454;2023-03-20T17:46:32;100771.22;;;16.09;40.44
1652;BME280;823;49.028;8.454;2023-03-20T17:51:33;100770.53;;;16.06;41.07
1652;BME280;823;49.028;8.454;2023-03-20T17:56:34;100766.28;;;16.03;41.09
1652;BME280;823;49.028;8.454;2023-03-20T18:01:35;100771.84;;;15.97;41.41
1652;BME280;823;49.028;8.454;2023-03-20T18:06:35;100775.03;;;15.85;41.54
1652;BME280;823;49.028;8.454;2023-03-20T18:11:36;100788.91;;;15.85;41.21
1652;BME280;823;49.028;8.454;2023-03-20T18:16:36;100781.88;;;15.87;41.43
1652;BME280;823;49.028;8.454;2023-03-20T18:21:36;100780.09;;;15.88;41.73
1652;BME280;823;49.028;8.454;2023-03-20T18:26:37;100779.09;;;15.90;41.64
1652;BME280;823;49.028;8.454;2023-03-20T18:31:37;100776.91;;;15.82;41.45
1652;BME280;823;49.028;8.454;2023-03-20T18:36:37;100769.31;;;15.76;41.87
1652;BME280;823;49.028;8.454;2023-03-20T18:41:38;100774.22;;;15.65;42.01
1652;BME280;823;49.028;8.454;2023-03-20T18:46:38;100759.31;;;15.67;41.98
1652;BME280;823;49.028;8.454;2023-03-20T18:51:39;100759.72;;;15.59;41.68
1652;BME280;823;49.028;8.454;2023-03-20T18:56:39;100762.91;;;15.47;42.21
1652;BME280;823;49.028;8.454;2023-03-20T19:01:40;100774.31;;;15.44;42.60
1652;BME280;823;49.028;8.454;2023-03-20T19:06:40;100782.91;;;15.46;43.54
1652;BME280;823;49.028;8.454;2023-03-20T19:11:40;100771.56;;;15.47;43.70
1652;BME280;823;49.028;8.454;2023-03-20T19:16:41;100761.84;;;15.51;42.83
1652;BME280;823;49.028;8.454;2023-03-20T19:21:41;100766.91;;;15.54;42.69
1652;BME280;823;49.028;8.454;2023-03-20T19:26:42;100761.69;;;15.54;43.27
1652;BME280;823;49.028;8.454;2023-03-20T19:31:42;100770.22;;;15.58;43.62
1652;BME280;823;49.028;8.454;2023-03-20T19:36:44;100768.53;;;15.57;43.69
1652;BME280;823;49.028;8.454;2023-03-20T19:41:47;100765.13;;;15.55;43.80
1652;BME280;823;49.028;8.454;2023-03-20T19:46:49;100766.97;;;15.53;44.45
1652;BME280;823;49.028;8.454;2023-03-20T19:51:49;100760.97;;;15.50;44.36
1652;BME280;823;49.028;8.454;2023-03-20T19:56:50;100767.13;;;15.49;44.25
1652;BME280;823;49.028;8.454;2023-03-20T20:01:50;100775.78;;;15.50;44.32
1652;BME280;823;49.028;8.454;2023-03-20T20:06:52;100772.47;;;15.46;43.68
1652;BME280;823;49.028;8.454;2023-03-20T20:11:53;100771.56;;;15.47;43.96
1652;BME280;823;49.028;8.454;2023-03-20T20:16:53;100771.47;;;15.49;43.72
1652;BME280;823;49.028;8.454;2023-03-20T20:21:54;100770.94;;;15.42;43.64
1652;BME280;823;49.028;8.454;2023-03-20T20:26:55;100771.72;;;15.44;44.18
1652;BME280;823;49.028;8.454;2023-03-20T20:31:55;100770.81;;;15.45;43.85
1652;BME280;823;49.028;8.454;2023-03-20T20:36:55;100769.09;;;15.44;43.38
1652;BME280;823;49.028;8.454;2023-03-20T20:41:55;100767.56;;;15.40;43.90
1652;BME280;823;49.028;8.454;2023-03-20T20:46:56;100763.41;;;15.36;43.46
1652;BME280;823;49.028;8.454;2023-03-20T20:51:56;100757.13;;;15.40;43.82
1652;BME280;823;49.028;8.454;2023-03-20T20:56:57;100759.81;;;15.39;43.96
1652;BME280;823;49.028;8.454;2023-03-20T21:01:57;100753.78;;;15.38;44.35
1652;BME280;823;49.028;8.454;2023-03-20T21:06:58;100756.38;;;15.38;44.44
1652;BME280;823;49.028;8.454;2023-03-20T21:11:58;100762.50;;;15.37;45.03
1652;BME280;823;49.028;8.454;2023-03-20T21:16:59;100760.09;;;15.32;45.22
1652;BME280;823;49.028;8.454;2023-03-20T21:22:00;100763.75;;;15.28;45.17
1652;BME280;823;49.028;8.454;2023-03-20T21:27:04;100761.38;;;15.24;45.75
1652;BME280;823;49.028;8.454;2023-03-20T21:32:04;100762.34;;;15.21;45.66
1652;BME280;823;49.028;8.454;2023-03-20T21:37:05;100759.97;;;15.17;45.54
1652;BME280;823;49.028;8.454;2023-03-20T21:42:05;100766.09;;;15.15;45.97
1652;BME280;823;49.028;8.454;2023-03-20T21:47:06;100758.34;;;15.14;45.89
1652;BME280;823;49.028;8.454;2023-03-20T21:52:06;100753.38;;;15.09;46.07
1652;BME280;823;49.028;8.454;2023-03-20T21:57:07;100761.94;;;15.11;45.89
1652;BME280;823;49.028;8.454;2023-03-20T22:02:15;100752.38;;;15.12;45.78
1652;BME280;823;49.028;8.454;2023-03-20T22:07:15;100751.59;;;15.10;45.78
1652;BME280;823;49.028;8.454;2023-03-20T22:12:16;100753.22;;;15.12;45.95
1652;BME280;823;49.028;8.454;2023-03-20T22:17:17;100762.84;;;15.10;45.93
1652;BME280;823;49.028;8.454;2023-03-20T22:22:18;100759.41;;;15.10;45.99
1652;BME280;823;49.028;8.454;2023-03-20T22:27:18;100757.72;;;15.09;45.97
1652;BME280;823;49.028;8.454;2023-03-20T22:32:19;100750.75;;;15.09;46.18
1652;BME280;823;49.028;8.454;2023-03-20T22:37:20;100752.66;;;15.06;46.99
1652;BME280;823;49.028;8.454;2023-03-20T22:42:21;100745.75;;;15.05;46.74
1652;BME280;823;49.028;8.454;2023-03-20T22:47:21;100743.22;;;15.03;46.28
1652;BME280;823;49.028;8.454;2023-03-20T22:52:21;100752.16;;;14.97;46.57
1652;BME280;823;49.028;8.454;2023-03-20T22:57:22;100745.97;;;15.00;46.27
1652;BME280;823;49.028;8.454;2023-03-20T23:02:22;100744.28;;;14.99;46.78
1652;BME280;823;49.028;8.454;2023-03-20T23:07:22;100739.97;;;14.98;46.63
1652;BME280;823;49.028;8.454;2023-03-20T23:12:23;100736.59;;;14.96;47.02
1652;BME280;823;49.028;8.454;2023-03-20T23:17:23;100739.34;;;14.93;46.78
1652;BME280;823;49.028;8.454;2023-03-20T23:22:25;100730.81;;;14.89;46.55
1652;BME280;823;49.028;8.454;2023-03-20T23:27:26;100727.03;;;14.77;47.06
1652;BME280;823;49.028;8.454;2023-03-20T23:32:26;100730.13;;;14.67;47.74
1652;BME280;823;49.028;8.454;2023-03-20T23:37:26;100724.03;;;14.66;47.92
1652;BME280;823;49.028;8.454;2023-03-20T23:42:27;100726.00;;;14.61;47.85
1652;BME280;823;49.028;8.454;2023-03-20T23:47:27;100718.25;;;14.59;48.03
1652;BME280;823;49.028;8.454;2023-03-20T23:52:27;100705.34;;;14.56;48.39
1652;BME280;823;49.028;8.454;2023-03-20T23:57:28;100710.78;;;14.52;48.64
